Terminal Aerodrome Forecast
Issued by NWS New Orleans/Baton Rouge, LA

Home | Current Version | Previous Version | Text Only | Print | Product List | Glossary On
Versions: 1 2 3 4 5 6 7 8 9 10 11 12 13
000
FTUS44 KLIX 302341
TAFNEW
TAF
KNEW 302341Z 3100/3124 22010KT P6SM BKN250
     FM310500 25008KT P6SM SCT250
     FM311400 31004KT P6SM SCT130
     FM311800 14004KT P6SM SCT250
     FM312300 18008KT P6SM SCT250=

USA.gov is the U.S. government's official web portal to all federal, state and local government web resources and services.